createdAt,value
2022-08-18T00:00:20.368Z,22.00
2022-08-18T00:10:21.875Z,23.42
2022-08-18T00:20:23.449Z,17.88
2022-08-18T00:30:24.872Z,20.80
2022-08-18T00:40:28.205Z,19.70
2022-08-18T00:50:45.715Z,27.38
2022-08-18T01:00:47.068Z,23.73
2022-08-18T01:10:48.563Z,16.98
2022-08-18T01:21:27.685Z,19.40
2022-08-18T01:31:30.551Z,15.07
2022-08-18T01:41:31.983Z,24.80
2022-08-18T01:51:40.053Z,21.40
2022-08-18T02:01:48.181Z,23.27
2022-08-18T02:21:52.325Z,25.80
2022-08-18T02:31:53.597Z,16.80
2022-08-18T02:41:54.833Z,25.75
2022-08-18T02:51:56.150Z,28.98
2022-08-18T03:01:58.571Z,46.20
2022-08-18T03:12:00.187Z,77.05
2022-08-18T03:22:03.186Z,30.88
2022-08-18T03:32:05.516Z,84.47
2022-08-18T03:42:06.915Z,69.78
2022-08-18T03:52:09.098Z,16.02
2022-08-18T04:02:10.634Z,43.78
2022-08-18T04:12:16.691Z,51.28
2022-08-18T04:22:18.670Z,56.78
2022-08-18T04:32:21.177Z,50.28
2022-08-18T04:42:22.407Z,65.22
2022-08-18T04:52:42.376Z,57.45
2022-08-18T05:02:43.846Z,64.82
2022-08-18T05:12:46.542Z,68.28
2022-08-18T05:22:47.855Z,111.65
2022-08-18T05:32:50.599Z,86.90
2022-08-18T05:42:52.032Z,85.63
2022-08-18T05:52:55.322Z,90.78
2022-08-18T06:02:57.627Z,79.13
2022-08-18T06:12:59.604Z,78.28
2022-08-18T06:23:08.992Z,68.90
2022-08-18T06:33:10.319Z,70.43
2022-08-18T06:43:12.648Z,77.53
2022-08-18T06:53:27.530Z,78.40
2022-08-18T07:03:35.276Z,71.38
2022-08-18T07:13:38.571Z,76.17
2022-08-18T07:23:44.064Z,74.00
2022-08-18T07:33:54.105Z,61.30
2022-08-18T07:44:03.968Z,66.55
2022-08-18T07:54:25.277Z,67.68
2022-08-18T08:04:32.854Z,62.15
2022-08-18T08:14:40.477Z,65.60
2022-08-18T08:24:57.105Z,58.27
2022-08-18T08:35:11.519Z,58.50
2022-08-18T08:45:31.699Z,41.67
2022-08-18T08:55:34.360Z,59.25
2022-08-18T09:05:37.316Z,51.97
2022-08-18T09:15:41.583Z,45.47
2022-08-18T09:25:42.838Z,40.85
2022-08-18T09:36:05.910Z,42.28
2022-08-18T09:46:12.432Z,41.72
2022-08-18T09:56:14.883Z,45.40
2022-08-18T10:06:26.924Z,11.25
2022-08-18T10:16:46.164Z,23.65
2022-08-18T10:26:56.042Z,16.42
2022-08-18T10:47:33.476Z,30.27
2022-08-18T10:57:54.356Z,29.30
2022-08-18T11:08:00.386Z,31.70
2022-08-18T11:18:11.440Z,25.98
2022-08-18T11:28:19.859Z,23.42
2022-08-18T11:38:23.514Z,27.20
2022-08-18T11:48:37.607Z,24.98
2022-08-18T11:58:50.397Z,29.63
2022-08-18T12:08:58.904Z,26.75
2022-08-18T12:19:00.492Z,23.45
2022-08-18T12:39:28.877Z,21.42
2022-08-18T12:49:30.871Z,25.23
2022-08-18T12:59:33.194Z,21.70
2022-08-18T13:09:52.562Z,10.77
2022-08-18T13:19:55.980Z,22.20
2022-08-18T13:29:57.254Z,7.28
2022-08-18T13:39:59.241Z,18.83
2022-08-18T13:50:04.708Z,15.18
2022-08-18T14:00:07.699Z,17.48
2022-08-18T14:10:19.399Z,10.98
2022-08-18T14:20:39.239Z,19.65
2022-08-18T14:30:50.684Z,12.80
2022-08-18T14:40:55.953Z,14.13
2022-08-18T14:50:58.714Z,12.40
2022-08-18T15:01:08.467Z,11.75
2022-08-18T15:11:12.096Z,12.30
2022-08-18T15:21:38.327Z,11.73
2022-08-18T15:31:59.802Z,9.57
2022-08-18T15:42:04.242Z,8.65
2022-08-18T15:52:06.766Z,13.60
2022-08-18T16:02:19.217Z,10.70
2022-08-18T16:12:20.742Z,19.83
2022-08-18T16:22:23.134Z,10.40
2022-08-18T16:32:24.386Z,10.50
2022-08-18T16:42:25.617Z,10.18
2022-08-18T16:52:27.223Z,6.03
2022-08-18T17:02:47.502Z,6.85
2022-08-18T17:12:48.719Z,9.00
2022-08-18T17:22:49.966Z,8.75
2022-08-18T17:32:52.900Z,7.38
2022-08-18T17:42:54.518Z,10.27
2022-08-18T17:53:07.098Z,16.27
2022-08-18T18:03:09.808Z,12.32
2022-08-18T18:13:31.412Z,18.67
2022-08-18T18:23:41.286Z,7.75
2022-08-18T18:33:42.516Z,7.50
2022-08-18T18:43:46.457Z,11.82
2022-08-18T18:53:52.458Z,7.63
2022-08-18T19:03:56.580Z,7.32
2022-08-18T19:14:09.084Z,6.22
2022-08-18T19:24:14.975Z,5.32
2022-08-18T19:34:30.051Z,5.47
2022-08-18T19:44:50.895Z,12.35
2022-08-18T19:55:13.987Z,10.05
2022-08-18T20:05:31.907Z,7.43
2022-08-18T20:15:33.160Z,7.55
2022-08-18T20:25:39.018Z,8.75
2022-08-18T20:36:00.578Z,13.15
2022-08-18T20:46:20.464Z,8.30
2022-08-18T20:56:32.416Z,8.25
2022-08-18T21:06:44.505Z,9.25
2022-08-18T21:16:45.825Z,8.95
2022-08-18T21:26:48.061Z,11.45
2022-08-18T21:36:53.546Z,12.77
2022-08-18T21:47:13.623Z,10.07
2022-08-18T21:57:25.045Z,12.68
2022-08-18T22:07:34.641Z,10.18
2022-08-18T22:17:43.074Z,12.52
2022-08-18T22:27:48.471Z,11.63
2022-08-18T22:37:50.879Z,14.70
2022-08-18T22:47:52.246Z,12.43
2022-08-18T22:57:56.194Z,11.55
2022-08-18T23:07:58.500Z,14.38
2022-08-18T23:17:59.817Z,10.05
2022-08-18T23:28:02.337Z,15.93
2022-08-18T23:38:03.887Z,10.63
2022-08-18T23:48:06.421Z,7.32
2022-08-18T23:58:09.378Z,13.40
